Storia di METAR DNMN · Minna Airport

Di seguito sono riportati i METAR degli ultimi giorni. Seleziona un anno per sfogliare i METAR più vecchi, dall'anno 2007 in poi.

2 dicembre 2022

Tempo Codice Tempo metereologico Temp. Vista Base nuvolosa Vento METAR/SPECI
19:00
V
31 °C 10 km+ - 020° 020° 6 kt METAR DNMN 021800Z 02006KT CAVOK 31/11 Q1007
18:00
V
33 °C 10 km+ - 040° 040° 5 kt METAR DNMN 021700Z 04005KT CAVOK 33/12 Q1005
17:00
V
35 °C 10 km+ - 040° 040° 5 kt METAR DNMN 021600Z 04005KT CAVOK 35/09 Q1005
14:00
V
36 °C 10 km+ - 050° 050° 7 kt METAR DNMN 021300Z 05007KT CAVOK 36/08 Q1007
13:00
V
36 °C 10 km+ - 051° 051° 12 kt METAR DNMN 021200Z 051012KT CAVOK 36/08 Q1008
12:00
V
34 °C 10 km+ - 060° 060° 14 kt METAR DNMN 021100Z 06014KT CAVOK 34/06 Q1009
11:00
V
32 °C 10 km+ - 050° 050° 13 kt METAR DNMN 021000Z 05013KT CAVOK 32/10 Q1010
10:00
V
30 °C 10 km+ - 040° 040° 7 kt METAR DNMN 020900Z 04007KT CAVOK 30/09 Q1011
09:00
V
27 °C 10 km+ - 050° 050° 6 kt METAR DNMN 020800Z 05006KT CAVOK 27/10 Q1011
08:00
V
25 °C 10 km+ - 050° 050° 6 kt METAR DNMN 020700Z 05006KT CAVOK 25/09 Q1010
07:00
V
24 °C 10 km+ - 330° 330° 3 kt METAR DNMN 020600Z 33003KT CAVOK 24/09 Q1010
04:00
V
24 °C 10 km+ - 100° 100° 2 kt METAR DNMN 020300Z 10002KT CAVOK 24/13 Q1010
03:00
V
24 °C 10 km+ - 100° 100° 3 kt METAR DNMN 020200Z 10003KT CAVOK 24/13 Q1010
02:00
V
24 °C 10 km+ - 060° 060° 3 kt METAR DNMN 020100Z 06003KT CAVOK 24/13 Q1010
01:00
V
24 °C 10 km+ - 050° 050° 5 kt METAR DNMN 020000Z 05005KT CAVOK 24/14 Q1011

1 dicembre 2022

Tempo Codice Tempo metereologico Temp. Vista Base nuvolosa Vento METAR/SPECI
23:00
V
26 °C 10 km+ - 080° 080° 1 kt METAR DNMN 012200Z 08001KT CAVOK 26/14 Q1011
21:00
V
27 °C 10 km+ - 220° 220° 2 kt SPECI DNMN 012000Z 22002KT CAVOK 27/16 Q1010
20:00
V
29 °C 10 km+ - 310° 310° 4 kt METAR DNMN 011900Z 31004KT CAVOK 29/16 Q1010
19:00
V
30 °C 10 km+ - 310° 310° 4 kt METAR DNMN 011800Z 31004KT CAVOK 30/16 Q1007
18:00
V
32 °C 10 km+ - 210° 210° 4 kt METAR DNMN 011700Z 21004KT CAVOK 32/17 Q1007
17:00
V
35 °C 10 km+ - 220° 220° 5 kt METAR DNMN 011600Z 22005KT CAVOK 35/16 Q1006
16:00
V
35 °C 10 km+ - 220° 220° 4 kt METAR DNMN 011500Z 22004KT CAVOK 35/16 Q1006
15:00
V
35 °C 10 km+ - 300° 300° 1 kt METAR DNMN 011400Z 30001KT CAVOK 35/16 Q1006
13:00
V
34 °C 10 km+ - 220° 220° 2 kt METAR DNMN 011200Z 22002KT CAVOK 34/13 Q1009
12:00
V
34 °C 10 km+ - 110° 110° 3 kt METAR DNMN 011100Z 11003KT CAVOK 34/13 Q1009
10:00
V
30 °C 10 km+ - 050° 050° 5 kt METAR DNMN 010900Z 05005KT CAVOK 30/10 Q1010
09:00
V
27 °C 10 km+ - 050° 050° 5 kt METAR DNMN 010800Z 05005KT CAVOK 27/19 Q1010
06:00
V
21 °C 10 km+ - 050° 050° 6 kt METAR DNMN 010500Z 05006KT CAVOK 21/14 Q1009
05:00
V
22 °C 10 km+ - 280° 280° 3 kt METAR DNMN 010400Z 28003KT CAVOK 22/14 Q1009
04:00
V
22 °C 10 km+ - 340° 340° 4 kt METAR DNMN 010300Z 34004KT CAVOK 22/14 Q1009
03:00
V
23 °C 10 km+ - 010° 010° 2 kt METAR DNMN 010200Z 01002KT CAVOK 23/15 Q1009
02:00
V
24 °C 10 km+ - 020° 020° 3 kt METAR DNMN 010100Z 02003KT CAVOK 24/06 Q1010
01:00
V
24 °C 10 km+ - 130° 130° 3 kt METAR DNMN 010000Z 13003KT CAVOK 24/17 Q1011
00:00
V
25 °C 10 km+ - 170° 170° 4 kt METAR DNMN 302300Z 17004KT CAVOK 25/17 Q1011

30 novembre 2022

Tempo Codice Tempo metereologico Temp. Vista Base nuvolosa Vento METAR/SPECI
23:00
V
25 °C 10 km+ - 160° 160° 4 kt METAR DNMN 302200Z 16004KT CAVOK 25/18 Q1010
18:00
V
32 °C 10 km+ - 320° 320° 4 kt METAR DNMN 301700Z 32004KT CAVOK 32/16 Q1007
17:00
V
32 °C 10 km+ - 300° 300° 4 kt METAR DNMN 301600Z 30004KT CAVOK 32/15 Q1007
16:00
V
35 °C 10 km+ - 340° 340° 3 kt METAR DNMN 301500Z 34003KT CAVOK 35/16 Q1007
15:00
V
35 °C 10 km+ - 190° 190° 2 kt METAR DNMN 301400Z 19002KT CAVOK 35/16 Q1007
14:00
V
35 °C 10 km+ - 160° 160° 5 kt METAR DNMN 301300Z 16005KT CAVOK 35/16 Q1007
12:00
V
32 °C 10 km+ - 300° 300° 1 kt METAR DNMN 301100Z 30001KT CAVOK 32/15 Q1009
11:00
V
24 °C 10 km+ - 120° 120° 1 kt METAR DNMN 301000Z 12001KT CAVOK 24/11 Q1010

Noi e le terze parti seguiamo il tuo comportamento su internet con i cookie. Se continui, riteniamo che tu sia d'accordo con la nostra Politica sui cookie.